createdAt,value
2018-10-12T00:01:11.503Z,16.98
2018-10-12T00:03:40.626Z,16.98
2018-10-12T00:06:09.848Z,16.94
2018-10-12T00:08:39.868Z,16.93
2018-10-12T00:11:10.295Z,16.93
2018-10-12T00:13:40.308Z,16.90
2018-10-12T00:16:09.657Z,16.86
2018-10-12T00:18:40.303Z,16.86
2018-10-12T00:21:09.491Z,16.83
2018-10-12T00:23:39.001Z,16.81
2018-10-12T00:26:09.173Z,16.78
2018-10-12T00:28:39.212Z,16.78
2018-10-12T00:31:08.076Z,16.74
2018-10-12T00:33:37.581Z,16.74
2018-10-12T00:36:06.915Z,16.71
2018-10-12T00:38:37.548Z,16.69
2018-10-12T00:41:07.748Z,16.67
2018-10-12T00:43:38.471Z,16.66
2018-10-12T00:46:09.494Z,16.65
2018-10-12T00:48:38.510Z,16.64
2018-10-12T00:51:08.114Z,16.61
2018-10-12T00:53:37.427Z,16.57
2018-10-12T00:56:07.639Z,16.56
2018-10-12T00:58:36.938Z,16.55
2018-10-12T01:01:07.381Z,16.53
2018-10-12T01:03:36.470Z,16.51
2018-10-12T01:06:06.044Z,16.48
2018-10-12T01:08:35.686Z,16.47
2018-10-12T01:11:05.459Z,16.46
2018-10-12T01:13:35.097Z,16.43
2018-10-12T01:16:05.117Z,16.40
2018-10-12T01:18:34.851Z,16.37
2018-10-12T01:21:04.248Z,16.36
2018-10-12T01:23:33.529Z,16.36
2018-10-12T01:26:03.994Z,16.33
2018-10-12T01:28:34.605Z,16.28
2018-10-12T01:31:04.195Z,16.25
2018-10-12T01:33:34.749Z,16.24
2018-10-12T01:36:03.836Z,16.20
2018-10-12T01:38:32.908Z,16.17
2018-10-12T01:41:01.732Z,16.16
2018-10-12T01:43:31.152Z,16.14
2018-10-12T01:46:00.812Z,16.10
2018-10-12T01:48:30.140Z,16.10
2018-10-12T01:50:59.470Z,16.09
2018-10-12T01:53:28.717Z,16.06
2018-10-12T01:56:04.341Z,16.06
2018-10-12T01:58:34.085Z,16.04
2018-10-12T02:01:03.716Z,16.01
2018-10-12T02:03:32.972Z,16.00
2018-10-12T02:06:01.770Z,15.99
2018-10-12T02:08:30.565Z,15.98
2018-10-12T02:10:59.632Z,15.96
2018-10-12T02:13:28.983Z,15.93
2018-10-12T02:15:57.949Z,15.91
2018-10-12T02:18:29.114Z,15.88
2018-10-12T02:20:58.808Z,15.89
2018-10-12T02:23:29.722Z,15.86
2018-10-12T02:25:59.251Z,15.83
2018-10-12T02:28:29.739Z,15.81
2018-10-12T02:30:59.029Z,15.81
2018-10-12T02:33:29.320Z,15.78
2018-10-12T02:35:58.858Z,15.77
2018-10-12T02:38:28.419Z,15.75
2018-10-12T02:40:58.100Z,15.73
2018-10-12T02:43:27.554Z,15.71
2018-10-12T02:45:57.781Z,15.71
2018-10-12T02:48:26.884Z,15.70
2018-10-12T02:50:56.082Z,15.67
2018-10-12T02:53:25.653Z,15.65
2018-10-12T02:55:55.499Z,15.63
2018-10-12T02:58:27.158Z,15.61
2018-10-12T03:00:56.183Z,15.58
2018-10-12T03:03:25.912Z,15.54
2018-10-12T03:05:56.444Z,15.52
2018-10-12T03:08:28.607Z,15.49
2018-10-12T03:10:58.342Z,15.46
2018-10-12T03:13:27.410Z,15.46
2018-10-12T03:15:57.697Z,15.45
2018-10-12T03:18:27.637Z,15.43
2018-10-12T03:20:57.281Z,15.42
2018-10-12T03:23:27.526Z,15.42
2018-10-12T03:25:57.942Z,15.42
2018-10-12T03:28:30.359Z,15.39
2018-10-12T03:31:00.443Z,15.39
2018-10-12T03:33:30.344Z,15.35
2018-10-12T03:36:00.135Z,15.35
2018-10-12T03:38:29.211Z,15.34
2018-10-12T03:40:58.077Z,15.34
2018-10-12T03:43:26.893Z,15.32
2018-10-12T03:45:55.715Z,15.29
2018-10-12T03:48:24.481Z,15.28
2018-10-12T03:50:53.816Z,15.27
2018-10-12T03:53:22.575Z,15.21
2018-10-12T03:55:51.276Z,15.23
2018-10-12T03:58:20.029Z,15.23
2018-10-12T04:00:49.343Z,15.20
2018-10-12T04:03:18.463Z,15.20
2018-10-12T04:05:47.825Z,15.20
2018-10-12T04:08:17.179Z,15.18
2018-10-12T04:10:46.845Z,15.17
2018-10-12T04:13:15.972Z,15.13
2018-10-12T04:15:45.743Z,15.15
2018-10-12T04:18:16.480Z,15.13
2018-10-12T04:20:46.608Z,15.12
2018-10-12T04:23:15.697Z,15.09
2018-10-12T04:25:45.502Z,15.07
2018-10-12T04:28:14.694Z,15.05
2018-10-12T04:30:46.277Z,15.02
2018-10-12T04:33:16.936Z,15.00
2018-10-12T04:35:46.644Z,14.98
2018-10-12T04:38:15.647Z,14.95
2018-10-12T04:41:20.418Z,14.93
2018-10-12T04:43:52.032Z,14.94
2018-10-12T04:46:25.503Z,14.91
2018-10-12T04:48:54.658Z,14.93
2018-10-12T04:51:27.455Z,14.91
2018-10-12T04:53:56.789Z,14.90
2018-10-12T04:56:27.024Z,14.88
2018-10-12T04:58:56.092Z,14.86
2018-10-12T05:01:24.856Z,14.84
2018-10-12T05:03:54.011Z,14.81
2018-10-12T05:06:22.768Z,14.79
2018-10-12T05:08:51.651Z,14.80
2018-10-12T05:11:20.695Z,14.76
2018-10-12T05:13:51.407Z,14.74
2018-10-12T05:16:21.448Z,14.73
2018-10-12T05:18:50.751Z,14.72
2018-10-12T05:21:20.665Z,14.66
2018-10-12T05:23:50.051Z,14.67
2018-10-12T05:26:19.977Z,14.66
2018-10-12T05:28:50.213Z,14.64
2018-10-12T05:31:19.796Z,14.65
2018-10-12T05:33:49.360Z,14.63
2018-10-12T05:36:19.548Z,14.62
2018-10-12T05:38:49.072Z,14.59
2018-10-12T05:41:18.059Z,14.59
2018-10-12T05:43:47.173Z,14.57
2018-10-12T05:46:16.024Z,14.57
2018-10-12T05:48:55.987Z,14.57
2018-10-12T05:51:26.219Z,14.58
2018-10-12T05:53:55.030Z,14.56
2018-10-12T05:56:26.223Z,14.52
2018-10-12T05:58:55.429Z,14.54
2018-10-12T06:01:24.376Z,14.54
2018-10-12T06:03:53.589Z,14.53
2018-10-12T06:06:22.624Z,14.55
2018-10-12T06:08:51.604Z,14.55
2018-10-12T06:11:20.838Z,14.55
2018-10-12T06:13:51.230Z,14.54
2018-10-12T06:16:21.122Z,14.56
2018-10-12T06:18:50.780Z,14.58
2018-10-12T06:21:20.556Z,14.59
2018-10-12T06:23:50.224Z,14.63
2018-10-12T06:26:20.534Z,14.65
2018-10-12T06:28:50.141Z,14.67
2018-10-12T06:31:19.820Z,14.68
2018-10-12T06:33:49.360Z,14.68
2018-10-12T06:36:20.001Z,14.70
2018-10-12T06:38:49.709Z,14.72
2018-10-12T06:41:19.548Z,14.72
2018-10-12T06:43:49.216Z,14.78
2018-10-12T06:46:18.741Z,14.68
2018-10-12T06:48:48.274Z,14.81
2018-10-12T06:51:18.794Z,14.84
2018-10-12T06:53:48.614Z,14.86
2018-10-12T06:56:18.072Z,14.90
2018-10-12T06:58:46.923Z,14.94
2018-10-12T07:01:16.322Z,14.97
2018-10-12T07:03:45.743Z,14.99
2018-10-12T07:06:14.588Z,15.04
2018-10-12T07:08:44.215Z,15.09
2018-10-12T07:11:13.433Z,15.10
2018-10-12T07:13:42.265Z,15.15
2018-10-12T07:16:11.471Z,15.21
2018-10-12T07:18:40.367Z,15.24
2018-10-12T07:21:10.171Z,15.29
2018-10-12T07:23:38.937Z,15.33
2018-10-12T07:26:08.419Z,15.40
2018-10-12T07:28:37.186Z,15.43
2018-10-12T07:31:06.787Z,15.49
2018-10-12T07:33:36.649Z,15.58
2018-10-12T07:36:05.457Z,15.66
2018-10-12T07:38:34.563Z,15.78
2018-10-12T07:41:03.307Z,15.88
2018-10-12T07:43:32.163Z,15.94
2018-10-12T07:46:00.929Z,16.01
2018-10-12T07:48:31.563Z,16.07
2018-10-12T07:51:01.321Z,16.11
2018-10-12T07:53:30.179Z,16.17
2018-10-12T07:55:59.382Z,16.17
2018-10-12T07:58:28.105Z,16.19
2018-10-12T08:00:57.184Z,16.24
2018-10-12T08:03:26.190Z,16.28
2018-10-12T08:05:54.949Z,16.37
2018-10-12T08:08:23.692Z,16.42
2018-10-12T08:10:52.666Z,16.52
2018-10-12T08:13:21.616Z,16.56
2018-10-12T08:15:53.242Z,16.62
2018-10-12T08:18:22.246Z,16.69
2018-10-12T08:20:51.038Z,16.72
2018-10-12T08:23:19.937Z,16.83
2018-10-12T08:25:49.192Z,16.94
2018-10-12T08:28:18.506Z,16.95
2018-10-12T08:30:47.311Z,17.06
2018-10-12T08:33:16.485Z,17.14
2018-10-12T08:35:45.356Z,17.19
2018-10-12T08:38:14.295Z,17.28
2018-10-12T08:40:43.143Z,17.38
2018-10-12T08:43:12.310Z,17.46
2018-10-12T08:45:41.644Z,17.55
2018-10-12T08:48:12.580Z,17.68
2018-10-12T08:50:42.017Z,17.81
2018-10-12T08:53:10.916Z,18.05
2018-10-12T08:55:40.616Z,18.31
2018-10-12T08:58:09.309Z,18.60
2018-10-12T09:00:39.701Z,18.91
2018-10-12T09:03:09.107Z,19.05
2018-10-12T09:05:38.045Z,19.23
2018-10-12T09:08:06.855Z,19.45
2018-10-12T09:10:35.641Z,19.48
2018-10-12T09:13:06.505Z,19.50
2018-10-12T09:15:35.440Z,19.43
2018-10-12T09:18:04.577Z,19.48
2018-10-12T09:20:33.488Z,19.52
2018-10-12T09:23:02.556Z,19.54
2018-10-12T09:25:31.439Z,19.47
2018-10-12T09:28:00.648Z,19.50
2018-10-12T09:30:29.655Z,19.63
2018-10-12T09:32:58.508Z,19.65
2018-10-12T09:35:27.243Z,19.78
2018-10-12T09:37:56.003Z,19.86
2018-10-12T09:40:24.867Z,19.96
2018-10-12T09:42:54.337Z,20.14
2018-10-12T09:45:23.393Z,20.28
2018-10-12T09:47:52.202Z,20.37
2018-10-12T09:50:21.346Z,20.74
2018-10-12T09:52:50.218Z,20.99
2018-10-12T09:55:19.304Z,21.14
2018-10-12T09:57:48.078Z,21.19
2018-10-12T10:00:22.080Z,21.17
2018-10-12T10:02:56.200Z,21.01
2018-10-12T10:05:24.925Z,21.13
2018-10-12T10:07:54.165Z,21.43
2018-10-12T10:10:22.831Z,21.79
2018-10-12T10:12:51.553Z,21.83
2018-10-12T10:15:20.291Z,21.72
2018-10-12T10:17:49.125Z,21.64
2018-10-12T10:20:18.345Z,21.62
2018-10-12T10:22:47.154Z,21.46
2018-10-12T10:25:16.534Z,21.29
2018-10-12T10:27:45.322Z,21.25
2018-10-12T10:30:14.214Z,21.10
2018-10-12T10:32:42.928Z,21.05
2018-10-12T10:35:12.819Z,20.99
2018-10-12T10:37:43.034Z,21.00
2018-10-12T10:40:11.975Z,20.97
2018-10-12T10:42:41.050Z,20.98
2018-10-12T10:45:09.850Z,21.06
2018-10-12T10:47:38.700Z,21.26
2018-10-12T10:50:07.828Z,21.38
2018-10-12T10:52:36.688Z,21.40
2018-10-12T10:55:05.499Z,21.33
2018-10-12T10:57:34.210Z,21.37
2018-10-12T11:00:03.375Z,21.41
2018-10-12T11:02:32.405Z,21.43
2018-10-12T11:05:01.278Z,21.55
2018-10-12T11:07:30.371Z,21.62
2018-10-12T11:09:59.092Z,21.69
2018-10-12T11:12:28.513Z,21.79
2018-10-12T11:14:57.858Z,21.91
2018-10-12T11:17:26.700Z,22.43
2018-10-12T11:19:55.856Z,22.98
2018-10-12T11:22:24.639Z,23.55
2018-10-12T11:24:53.937Z,23.86
2018-10-12T11:27:22.893Z,23.89
2018-10-12T11:29:51.668Z,23.95
2018-10-12T11:32:20.888Z,23.87
2018-10-12T11:34:50.126Z,23.76
2018-10-12T11:37:18.874Z,23.78
2018-10-12T11:39:48.074Z,23.85
2018-10-12T11:42:17.523Z,24.10
2018-10-12T11:44:46.473Z,24.48
2018-10-12T11:47:15.422Z,24.38
2018-10-12T11:49:44.240Z,24.14
2018-10-12T11:52:13.028Z,24.19
2018-10-12T11:54:42.247Z,24.05
2018-10-12T11:57:11.362Z,24.05
2018-10-12T11:59:40.782Z,23.72
2018-10-12T12:02:09.575Z,23.47
2018-10-12T12:04:51.185Z,23.28
2018-10-12T12:07:20.160Z,23.12
2018-10-12T12:09:49.777Z,23.11
2018-10-12T12:12:18.690Z,23.17
2018-10-12T12:14:47.989Z,23.21
2018-10-12T12:17:16.855Z,23.21
2018-10-12T12:19:45.730Z,23.15
2018-10-12T12:22:14.487Z,23.08
2018-10-12T12:24:43.798Z,23.02
2018-10-12T12:27:12.674Z,22.93
2018-10-12T12:29:41.809Z,22.95
2018-10-12T12:32:10.910Z,22.96
2018-10-12T12:34:40.019Z,22.95
2018-10-12T12:37:09.272Z,22.90
2018-10-12T12:39:39.486Z,22.93
2018-10-12T12:42:09.037Z,22.91
2018-10-12T12:44:38.569Z,22.90
2018-10-12T12:47:07.767Z,22.90
2018-10-12T12:49:36.534Z,22.90
2018-10-12T12:52:05.328Z,22.90
2018-10-12T12:54:34.730Z,22.87
2018-10-12T12:57:04.105Z,22.81
2018-10-12T12:59:33.118Z,22.75
2018-10-12T13:02:02.517Z,22.76
2018-10-12T13:04:31.686Z,22.81
2018-10-12T13:07:00.850Z,22.78
2018-10-12T13:09:30.069Z,22.77
2018-10-12T13:11:58.855Z,22.83
2018-10-12T13:14:27.645Z,22.83
2018-10-12T13:16:56.721Z,22.86
2018-10-12T13:19:25.516Z,22.91
2018-10-12T13:21:54.503Z,22.93
2018-10-12T13:24:24.600Z,23.01
2018-10-12T13:26:53.900Z,23.01
2018-10-12T13:29:22.968Z,22.98
2018-10-12T13:31:51.856Z,22.97
2018-10-12T13:34:20.661Z,22.98
2018-10-12T13:36:49.610Z,23.04
2018-10-12T13:39:18.845Z,23.00
2018-10-12T13:41:48.211Z,22.99
2018-10-12T13:44:17.157Z,23.01
2018-10-12T13:46:46.064Z,23.13
2018-10-12T13:49:15.208Z,23.20
2018-10-12T13:51:44.025Z,23.20
2018-10-12T13:54:13.155Z,23.17
2018-10-12T13:56:41.986Z,23.14
2018-10-12T13:59:10.853Z,23.19
2018-10-12T14:01:39.835Z,23.18
2018-10-12T14:04:08.611Z,23.16
2018-10-12T14:06:37.681Z,23.14
2018-10-12T14:09:07.759Z,23.17
2018-10-12T14:11:37.273Z,23.22
2018-10-12T14:14:06.169Z,23.22
2018-10-12T14:16:35.082Z,23.22
2018-10-12T14:19:04.058Z,23.25
2018-10-12T14:21:32.827Z,23.30
2018-10-12T14:24:01.723Z,23.28
2018-10-12T14:26:30.543Z,23.26
2018-10-12T14:28:59.841Z,23.19
2018-10-12T14:31:29.720Z,23.16
2018-10-12T14:33:59.689Z,23.18
2018-10-12T14:36:28.527Z,23.17
2018-10-12T14:38:57.338Z,23.14
2018-10-12T14:41:26.183Z,23.10
2018-10-12T14:43:55.028Z,23.05
2018-10-12T14:46:23.779Z,23.04
2018-10-12T14:48:52.653Z,23.04
2018-10-12T14:51:21.411Z,23.00
2018-10-12T14:53:50.301Z,22.96
2018-10-12T14:56:19.091Z,22.89
2018-10-12T14:58:47.904Z,22.87
2018-10-12T15:01:16.772Z,22.87
2018-10-12T15:03:45.673Z,22.80
2018-10-12T15:06:14.519Z,22.76
2018-10-12T15:08:43.317Z,22.75
2018-10-12T15:11:12.308Z,22.72
2018-10-12T15:13:41.396Z,22.74
2018-10-12T15:16:10.167Z,22.69
2018-10-12T15:18:39.291Z,22.66
2018-10-12T15:21:08.454Z,22.66
2018-10-12T15:23:37.280Z,22.62
2018-10-12T15:26:06.737Z,22.61
2018-10-12T15:28:35.560Z,22.54
2018-10-12T15:31:04.456Z,22.46
2018-10-12T15:33:33.438Z,22.44
2018-10-12T15:36:02.403Z,22.39
2018-10-12T15:38:31.439Z,22.35
2018-10-12T15:41:00.422Z,22.33
2018-10-12T15:43:29.406Z,22.28
2018-10-12T15:45:58.427Z,22.20
2018-10-12T15:48:28.010Z,22.12
2018-10-12T15:50:56.791Z,22.05
2018-10-12T15:53:25.713Z,21.99
2018-10-12T15:55:54.832Z,21.90
2018-10-12T15:58:23.788Z,21.83
2018-10-12T16:00:52.560Z,21.78
2018-10-12T16:03:21.329Z,21.76
2018-10-12T16:05:50.059Z,21.71
2018-10-12T16:08:19.335Z,21.61
2018-10-12T16:10:48.313Z,21.53
2018-10-12T16:13:17.715Z,21.44
2018-10-12T16:15:46.556Z,21.36
2018-10-12T16:18:15.866Z,21.29
2018-10-12T16:20:45.643Z,21.22
2018-10-12T16:23:17.253Z,21.16
2018-10-12T16:25:58.706Z,21.10
2018-10-12T16:28:28.847Z,21.04
2018-10-12T16:30:59.629Z,20.97
2018-10-12T16:33:28.518Z,20.92
2018-10-12T16:35:58.871Z,20.89
2018-10-12T16:38:27.639Z,20.84
2018-10-12T16:40:56.872Z,20.80
2018-10-12T16:43:25.783Z,20.76
2018-10-12T16:45:54.629Z,20.72
2018-10-12T16:48:23.996Z,20.66
2018-10-12T16:50:53.993Z,20.61
2018-10-12T16:53:22.828Z,20.56
2018-10-12T16:55:51.611Z,20.52
2018-10-12T16:58:20.501Z,20.47
2018-10-12T17:00:49.314Z,20.42
2018-10-12T17:03:18.555Z,20.39
2018-10-12T17:05:47.892Z,20.34
2018-10-12T17:08:17.049Z,20.30
2018-10-12T17:10:46.400Z,20.28
2018-10-12T17:13:15.531Z,20.24
2018-10-12T17:15:44.400Z,20.24
2018-10-12T17:18:14.037Z,20.20
2018-10-12T17:20:43.013Z,20.19
2018-10-12T17:23:11.807Z,20.19
2018-10-12T17:25:40.681Z,20.15
2018-10-12T17:28:09.512Z,20.15
2018-10-12T17:30:38.286Z,20.11
2018-10-12T17:33:07.444Z,20.07
2018-10-12T17:35:37.225Z,20.05
2018-10-12T17:38:07.677Z,20.01
2018-10-12T17:40:37.828Z,19.98
2018-10-12T17:43:06.821Z,19.95
2018-10-12T17:45:35.866Z,19.92
2018-10-12T17:48:05.056Z,19.88
2018-10-12T17:50:33.928Z,19.86
2018-10-12T17:53:02.877Z,19.83
2018-10-12T17:55:31.866Z,19.81
2018-10-12T17:58:00.674Z,19.79
2018-10-12T18:00:29.474Z,19.75
2018-10-12T18:02:58.905Z,19.72
2018-10-12T18:05:27.836Z,19.68
2018-10-12T18:07:56.701Z,19.65
2018-10-12T18:10:25.891Z,19.61
2018-10-12T18:12:55.321Z,19.58
2018-10-12T18:15:24.118Z,19.58
2018-10-12T18:17:53.214Z,19.54
2018-10-12T18:20:23.410Z,19.51
2018-10-12T18:22:52.299Z,19.47
2018-10-12T18:25:21.197Z,19.45
2018-10-12T18:27:50.588Z,19.42
2018-10-12T18:30:19.648Z,19.41
2018-10-12T18:32:48.485Z,19.36
2018-10-12T18:35:17.479Z,19.32
2018-10-12T18:37:46.580Z,19.31
2018-10-12T18:40:15.967Z,19.28
2018-10-12T18:42:44.921Z,19.26
2018-10-12T18:45:13.754Z,19.23
2018-10-12T18:47:43.119Z,19.21
2018-10-12T18:50:12.264Z,19.18
2018-10-12T18:52:41.143Z,19.13
2018-10-12T18:55:10.166Z,19.11
2018-10-12T18:57:39.037Z,19.09
2018-10-12T19:00:08.919Z,19.09
2018-10-12T19:02:37.764Z,19.07
2018-10-12T19:05:06.806Z,19.04
2018-10-12T19:07:35.886Z,19.03
2018-10-12T19:10:04.840Z,19.00
2018-10-12T19:12:39.878Z,18.97
2018-10-12T19:15:09.377Z,18.95
2018-10-12T19:17:38.683Z,18.93
2018-10-12T19:20:07.521Z,18.90
2018-10-12T19:22:36.426Z,18.88
2018-10-12T19:25:05.556Z,18.84
2018-10-12T19:27:34.410Z,18.82
2018-10-12T19:30:03.201Z,18.79
2018-10-12T19:32:32.036Z,18.76
2018-10-12T19:35:01.248Z,18.74
2018-10-12T19:37:29.995Z,18.73
2018-10-12T19:39:58.867Z,18.70
2018-10-12T19:42:27.621Z,18.67
2018-10-12T19:44:56.488Z,18.65
2018-10-12T19:47:25.314Z,18.63
2018-10-12T19:49:54.147Z,18.61
2018-10-12T19:52:22.949Z,18.61
2018-10-12T19:54:52.051Z,18.58
2018-10-12T19:57:20.854Z,18.57
2018-10-12T19:59:49.859Z,18.55
2018-10-12T20:02:19.046Z,18.54
2018-10-12T20:04:47.874Z,18.52
2018-10-12T20:07:17.126Z,18.50
2018-10-12T20:09:46.324Z,18.49
2018-10-12T20:12:15.210Z,18.47
2018-10-12T20:14:44.414Z,18.47
2018-10-12T20:17:13.238Z,18.46
2018-10-12T20:19:42.275Z,18.43
2018-10-12T20:22:12.207Z,18.42
2018-10-12T20:24:41.794Z,18.40
2018-10-12T20:27:10.828Z,18.37
2018-10-12T20:29:39.696Z,18.37
2018-10-12T20:32:09.482Z,18.36
2018-10-12T20:34:38.640Z,18.34
2018-10-12T20:37:08.109Z,18.35
2018-10-12T20:39:37.224Z,18.35
2018-10-12T20:42:06.459Z,18.34
2018-10-12T20:44:35.313Z,18.32
2018-10-12T20:47:04.061Z,18.31
2018-10-12T20:49:33.102Z,18.29
2018-10-12T20:52:01.873Z,18.31
2018-10-12T20:54:31.290Z,18.30
2018-10-12T20:57:00.292Z,18.30
2018-10-12T20:59:29.621Z,18.26
2018-10-12T21:02:00.037Z,18.23
2018-10-12T21:04:29.150Z,18.21
2018-10-12T21:07:03.344Z,18.19
2018-10-12T21:09:32.732Z,18.16
2018-10-12T21:12:02.389Z,18.13
2018-10-12T21:14:32.175Z,18.12
2018-10-12T21:17:03.128Z,18.10
2018-10-12T21:19:32.060Z,18.06
2018-10-12T21:22:00.785Z,18.03
2018-10-12T21:24:29.917Z,18.01
2018-10-12T21:26:58.977Z,17.97
2018-10-12T21:29:27.799Z,17.95
2018-10-12T21:31:56.508Z,17.94
2018-10-12T21:34:26.255Z,17.92
2018-10-12T21:36:55.440Z,17.91
2018-10-12T21:39:24.864Z,17.90
2018-10-12T21:41:54.134Z,17.85
2018-10-12T21:44:22.956Z,17.82
2018-10-12T21:46:51.751Z,17.81
2018-10-12T21:49:20.576Z,17.80
2018-10-12T21:51:49.423Z,17.77
2018-10-12T21:54:18.090Z,17.74
2018-10-12T21:56:47.198Z,17.73
2018-10-12T21:59:16.320Z,17.73
2018-10-12T22:01:45.019Z,17.71
2018-10-12T22:04:14.508Z,17.68
2018-10-12T22:06:43.260Z,17.66
2018-10-12T22:09:12.324Z,17.64
2018-10-12T22:11:41.430Z,17.64
2018-10-12T22:14:10.227Z,17.60
2018-10-12T22:16:39.082Z,17.58
2018-10-12T22:19:08.396Z,17.55
2018-10-12T22:21:37.531Z,17.54
2018-10-12T22:24:06.635Z,17.53
2018-10-12T22:26:36.885Z,17.50
2018-10-12T22:29:06.203Z,17.45
2018-10-12T22:31:36.165Z,17.43
2018-10-12T22:34:05.292Z,17.43
2018-10-12T22:36:34.405Z,17.39
2018-10-12T22:39:03.248Z,17.38
2018-10-12T22:41:32.343Z,17.36
2018-10-12T22:44:01.116Z,17.34
2018-10-12T22:46:30.020Z,17.34
2018-10-12T22:48:58.795Z,17.33
2018-10-12T22:51:27.645Z,17.32
2018-10-12T22:53:56.417Z,17.32
2018-10-12T22:56:25.579Z,17.29
2018-10-12T22:58:54.435Z,17.27
2018-10-12T23:01:23.635Z,17.25
2018-10-12T23:03:52.391Z,17.21
2018-10-12T23:06:21.167Z,17.19
2018-10-12T23:08:50.593Z,17.16
2018-10-12T23:11:19.734Z,17.15
2018-10-12T23:13:48.579Z,17.12
2018-10-12T23:16:17.346Z,17.12
2018-10-12T23:18:46.163Z,17.07
2018-10-12T23:21:14.889Z,17.05
2018-10-12T23:23:43.970Z,17.05
2018-10-12T23:26:12.753Z,17.03
2018-10-12T23:28:41.539Z,17.01
2018-10-12T23:31:10.553Z,16.98
2018-10-12T23:33:50.649Z,16.95
2018-10-12T23:36:20.349Z,16.92
2018-10-12T23:38:49.951Z,16.94
2018-10-12T23:41:19.872Z,16.92
2018-10-12T23:43:49.855Z,16.91
2018-10-12T23:46:19.956Z,16.88
2018-10-12T23:48:51.357Z,16.87
2018-10-12T23:51:21.178Z,16.85
2018-10-12T23:53:51.153Z,16.84
2018-10-12T23:56:21.357Z,16.81
2018-10-12T23:58:50.604Z,16.81
